Marathon, Iowa
Current Conditions -  °F | °C
As of 4:15 AM on Thursday 29 Jan 2015 (Local Time) from KSLB Reporting Station
Overcast Overcast  
Wind Chill: 20°   Ceiling: 1200
Heat Index: 34°   Visibility: 10mi
Dew Point: 30°   Wind: 29mph
Humidity: 87%   Direction: 320°NW
Pressure: 30.06"   Gusts: 37mph
Location:  42.86°N, 94.98°W
Report Text: KSLB 291015Z AUTO 32025G32KT 10SM OVC012 01/M01 A3006 RMK AO2
Loading
Personal Weather Stations






























Interactive Weather Map New forecast layout! Learn more

10-Day Weather Forecast

Advertisements
Track Severe Weather on mobile